createdAt,value
2023-03-21T00:00:48.111Z,12.86
2023-03-21T00:03:51.711Z,12.69
2023-03-21T00:06:54.190Z,12.79
2023-03-21T00:10:01.898Z,12.81
2023-03-21T00:13:08.036Z,12.79
2023-03-21T00:16:20.266Z,12.69
2023-03-21T00:19:33.156Z,12.91
2023-03-21T00:22:36.596Z,12.74
2023-03-21T00:25:39.404Z,12.87
2023-03-21T00:28:43.340Z,12.90
2023-03-21T00:31:45.899Z,12.90
2023-03-21T00:35:01.396Z,12.91
2023-03-21T00:38:04.757Z,12.77
2023-03-21T00:41:20.911Z,12.86
2023-03-21T00:44:26.887Z,12.87
2023-03-21T00:47:30.486Z,12.71
2023-03-21T00:50:34.427Z,12.78
2023-03-21T00:53:36.980Z,12.79
2023-03-21T00:56:39.480Z,12.61
2023-03-21T00:59:42.144Z,12.70
2023-03-21T01:03:02.873Z,12.59
2023-03-21T01:06:07.788Z,12.56
2023-03-21T01:09:22.284Z,12.67
2023-03-21T01:12:27.627Z,12.62
2023-03-21T01:15:31.406Z,12.53
2023-03-21T01:18:35.524Z,12.36
2023-03-21T01:21:37.828Z,12.38
2023-03-21T01:24:52.078Z,12.46
2023-03-21T01:27:55.477Z,12.48
2023-03-21T01:31:02.012Z,12.39
2023-03-21T01:34:04.840Z,12.38
2023-03-21T01:37:07.522Z,12.36
2023-03-21T01:40:16.364Z,12.19
2023-03-21T01:43:31.361Z,12.30
2023-03-21T01:46:51.529Z,12.31
2023-03-21T01:50:03.322Z,12.28
2023-03-21T01:53:06.949Z,12.12
2023-03-21T01:56:18.308Z,12.13
2023-03-21T01:59:23.786Z,12.25
2023-03-21T02:02:31.458Z,12.22
2023-03-21T02:06:00.861Z,12.21
2023-03-21T02:09:09.298Z,12.21
2023-03-21T02:12:12.359Z,12.03
2023-03-21T02:15:16.073Z,12.17
2023-03-21T02:18:42.053Z,12.03
2023-03-21T02:22:21.761Z,12.18
2023-03-21T02:25:49.401Z,12.09
2023-03-21T02:28:59.757Z,12.23
2023-03-21T02:32:17.907Z,12.23
2023-03-21T02:35:56.849Z,12.22
2023-03-21T02:39:13.560Z,12.22
2023-03-21T02:42:43.365Z,12.17
2023-03-21T02:45:53.832Z,12.00
2023-03-21T02:49:07.002Z,12.03
2023-03-21T02:52:25.556Z,11.97
2023-03-21T02:55:33.261Z,11.95
2023-03-21T02:58:37.644Z,12.19
2023-03-21T03:01:40.595Z,12.12
2023-03-21T03:04:43.490Z,12.21
2023-03-21T03:07:46.005Z,12.09
2023-03-21T03:11:07.212Z,12.19
2023-03-21T03:14:42.037Z,12.18
2023-03-21T03:17:55.544Z,12.17
2023-03-21T03:21:19.178Z,12.08
2023-03-21T03:24:34.063Z,12.12
2023-03-21T03:27:40.694Z,11.96
2023-03-21T03:30:54.253Z,12.07
2023-03-21T03:34:07.141Z,12.05
2023-03-21T03:37:16.772Z,12.07
2023-03-21T03:40:28.317Z,12.00
2023-03-21T03:43:43.544Z,12.01
2023-03-21T03:46:58.355Z,11.99
2023-03-21T03:50:06.364Z,11.97
2023-03-21T03:53:30.674Z,11.96
2023-03-21T03:56:33.811Z,11.83
2023-03-21T03:59:38.687Z,11.91
2023-03-21T04:02:42.004Z,11.88
2023-03-21T04:05:46.421Z,11.77
2023-03-21T04:08:49.153Z,11.75
2023-03-21T04:11:52.071Z,11.86
2023-03-21T04:14:57.091Z,11.70
2023-03-21T04:18:04.944Z,11.73
2023-03-21T04:21:12.873Z,11.70
2023-03-21T04:24:16.136Z,11.83
2023-03-21T04:27:19.165Z,11.66
2023-03-21T04:30:24.934Z,11.82
2023-03-21T04:33:27.521Z,11.79
2023-03-21T04:36:39.421Z,11.78
2023-03-21T04:39:42.876Z,11.62
2023-03-21T04:42:47.620Z,11.59
2023-03-21T04:45:51.024Z,11.69
2023-03-21T04:48:53.787Z,11.75
2023-03-21T04:51:56.244Z,11.74
2023-03-21T04:54:58.856Z,11.57
2023-03-21T04:58:01.370Z,11.54
2023-03-21T05:01:05.980Z,11.68
2023-03-21T05:04:08.473Z,11.52
2023-03-21T05:07:11.469Z,11.57
2023-03-21T05:10:14.021Z,11.59
2023-03-21T05:13:16.793Z,11.47
2023-03-21T05:16:19.319Z,11.61
2023-03-21T05:19:25.865Z,11.48
2023-03-21T05:22:29.118Z,11.44
2023-03-21T05:25:34.725Z,11.56
2023-03-21T05:28:39.958Z,11.47
2023-03-21T05:31:44.926Z,11.50
2023-03-21T05:34:47.417Z,11.57
2023-03-21T05:37:50.139Z,11.62
2023-03-21T05:40:54.339Z,11.79
2023-03-21T05:43:56.989Z,11.70
2023-03-21T05:46:59.641Z,11.89
2023-03-21T05:50:03.143Z,11.80
2023-03-21T05:53:06.101Z,11.90
2023-03-21T05:56:09.326Z,11.97
2023-03-21T05:59:12.586Z,12.10
2023-03-21T06:02:16.117Z,12.08
2023-03-21T06:05:19.026Z,12.15
2023-03-21T06:08:21.525Z,12.14
2023-03-21T06:11:32.853Z,12.03
2023-03-21T06:14:37.675Z,12.08
2023-03-21T06:17:41.093Z,12.29
2023-03-21T06:20:44.829Z,12.35
2023-03-21T06:23:47.911Z,12.28
2023-03-21T06:26:50.233Z,12.35
2023-03-21T06:29:53.380Z,12.42
2023-03-21T06:32:56.252Z,12.66
2023-03-21T06:35:59.460Z,12.60
2023-03-21T06:39:02.421Z,12.87
2023-03-21T06:42:05.334Z,12.87
2023-03-21T06:45:08.907Z,12.91
2023-03-21T06:48:12.052Z,13.12
2023-03-21T06:51:16.515Z,13.24
2023-03-21T06:54:23.088Z,13.35
2023-03-21T06:57:25.847Z,13.28
2023-03-21T07:00:28.793Z,13.47
2023-03-21T07:03:31.743Z,13.53
2023-03-21T07:06:36.214Z,13.54
2023-03-21T07:09:39.947Z,13.83
2023-03-21T07:12:42.690Z,13.75
2023-03-21T07:15:46.303Z,13.98
2023-03-21T07:18:49.004Z,14.15
2023-03-21T07:21:51.306Z,14.26
2023-03-21T07:25:04.375Z,14.33
2023-03-21T07:28:09.275Z,14.54
2023-03-21T07:31:17.351Z,14.77
2023-03-21T07:34:19.752Z,15.12
2023-03-21T07:37:23.866Z,15.53
2023-03-21T07:40:31.158Z,15.82
2023-03-21T07:43:34.787Z,16.14
2023-03-21T07:46:38.186Z,16.28
2023-03-21T07:49:40.890Z,16.53
2023-03-21T07:52:43.286Z,16.45
2023-03-21T07:55:50.350Z,16.79
2023-03-21T07:58:52.616Z,17.36
2023-03-21T08:01:55.289Z,17.78
2023-03-21T08:04:57.916Z,18.88
2023-03-21T08:08:00.329Z,20.32
2023-03-21T08:11:04.505Z,21.71
2023-03-21T08:14:06.952Z,23.02
2023-03-21T08:17:10.399Z,24.07
2023-03-21T08:20:16.311Z,24.55
2023-03-21T08:23:19.060Z,25.12
2023-03-21T08:26:25.103Z,25.42
2023-03-21T08:29:27.986Z,24.75
2023-03-21T08:32:31.143Z,24.48
2023-03-21T08:35:37.818Z,23.88
2023-03-21T08:38:41.986Z,23.77
2023-03-21T08:41:44.613Z,23.62
2023-03-21T08:44:47.343Z,23.42
2023-03-21T08:47:50.425Z,23.51
2023-03-21T08:50:52.760Z,23.59
2023-03-21T08:53:55.360Z,23.81
2023-03-21T08:57:00.527Z,23.97
2023-03-21T09:00:17.131Z,23.82
2023-03-21T09:03:20.229Z,24.00
2023-03-21T09:06:24.738Z,24.28
2023-03-21T09:09:28.569Z,24.34
2023-03-21T09:12:31.432Z,24.39
2023-03-21T09:15:35.481Z,24.59
2023-03-21T09:18:49.454Z,24.79
2023-03-21T09:21:53.901Z,23.99
2023-03-21T09:24:57.549Z,23.50
2023-03-21T09:28:00.355Z,23.32
2023-03-21T09:31:04.023Z,23.68
2023-03-21T09:34:06.474Z,23.82
2023-03-21T09:37:13.834Z,23.78
2023-03-21T09:40:22.430Z,23.84
2023-03-21T09:43:57.128Z,24.00
2023-03-21T09:47:21.759Z,24.53
2023-03-21T09:50:32.065Z,24.98
2023-03-21T09:53:39.849Z,24.71
2023-03-21T09:56:44.983Z,24.12
2023-03-21T09:59:50.687Z,23.98
2023-03-21T10:02:59.791Z,24.19
2023-03-21T10:06:15.310Z,24.48
2023-03-21T10:09:22.986Z,24.76
2023-03-21T10:12:30.615Z,25.23
2023-03-21T10:15:33.248Z,25.52
2023-03-21T10:18:37.658Z,25.71
2023-03-21T10:22:03.377Z,25.98
2023-03-21T10:25:08.654Z,25.95
2023-03-21T10:28:18.721Z,26.11
2023-03-21T10:31:27.075Z,26.08
2023-03-21T10:38:06.544Z,26.38
2023-03-21T10:41:11.418Z,26.71
2023-03-21T10:44:17.832Z,26.70
2023-03-21T10:47:26.699Z,26.96
2023-03-21T10:50:30.263Z,27.00
2023-03-21T10:53:38.562Z,26.79
2023-03-21T10:56:49.911Z,26.68
2023-03-21T11:00:02.463Z,26.70
2023-03-21T11:03:05.676Z,26.91
2023-03-21T11:06:26.580Z,27.07
2023-03-21T11:09:44.310Z,26.83
2023-03-21T11:12:48.577Z,26.90
2023-03-21T11:15:58.583Z,26.88
2023-03-21T11:19:04.056Z,26.76
2023-03-21T11:22:08.196Z,26.63
2023-03-21T11:25:39.635Z,26.58
2023-03-21T11:28:44.913Z,26.25
2023-03-21T11:31:47.327Z,26.05
2023-03-21T11:35:16.882Z,26.14
2023-03-21T11:38:31.796Z,25.91
2023-03-21T11:41:35.518Z,25.75
2023-03-21T11:44:44.232Z,25.95
2023-03-21T11:47:49.465Z,26.05
2023-03-21T11:51:01.180Z,26.22
2023-03-21T11:54:36.400Z,26.24
2023-03-21T11:58:14.638Z,26.43
2023-03-21T12:01:39.061Z,26.21
2023-03-21T12:04:42.863Z,25.58
2023-03-21T12:07:45.545Z,25.38
2023-03-21T12:10:59.340Z,25.55
2023-03-21T12:14:24.914Z,25.33
2023-03-21T12:18:06.919Z,24.52
2023-03-21T12:21:15.763Z,23.75
2023-03-21T12:24:26.314Z,23.19
2023-03-21T12:28:09.974Z,22.50
2023-03-21T12:31:15.677Z,22.01
2023-03-21T12:34:46.445Z,21.61
2023-03-21T12:38:18.116Z,21.27
2023-03-21T12:41:41.282Z,21.07
2023-03-21T12:44:51.261Z,20.73
2023-03-21T12:48:00.370Z,20.32
2023-03-21T12:51:08.400Z,20.29
2023-03-21T12:54:21.925Z,20.09
2023-03-21T12:57:47.780Z,20.42
2023-03-21T13:01:01.600Z,20.95
2023-03-21T13:04:46.038Z,21.35
2023-03-21T13:08:10.033Z,21.27
2023-03-21T13:11:23.694Z,21.07
2023-03-21T13:14:34.049Z,20.79
2023-03-21T13:17:48.008Z,20.36
2023-03-21T13:20:55.047Z,20.16
2023-03-21T13:24:05.278Z,19.93
2023-03-21T13:27:26.138Z,19.85
2023-03-21T13:30:30.414Z,19.52
2023-03-21T13:33:34.653Z,19.32
2023-03-21T13:36:42.191Z,19.13
2023-03-21T13:39:49.004Z,19.26
2023-03-21T13:43:00.538Z,19.56
2023-03-21T13:46:25.703Z,19.34
2023-03-21T13:49:34.952Z,19.33
2023-03-21T13:52:37.280Z,19.23
2023-03-21T13:55:42.781Z,19.17
2023-03-21T13:58:45.709Z,19.21
2023-03-21T14:02:16.055Z,19.63
2023-03-21T14:05:22.870Z,19.95
2023-03-21T14:08:36.739Z,20.23
2023-03-21T14:11:44.576Z,20.34
2023-03-21T14:15:06.732Z,20.53
2023-03-21T14:18:28.152Z,20.59
2023-03-21T14:21:50.288Z,20.59
2023-03-21T14:25:00.860Z,20.59
2023-03-21T14:28:06.448Z,20.50
2023-03-21T14:31:16.127Z,20.30
2023-03-21T14:34:19.846Z,20.09
2023-03-21T14:37:28.557Z,20.20
2023-03-21T14:40:30.898Z,19.88
2023-03-21T14:43:34.375Z,19.94
2023-03-21T14:46:36.825Z,19.89
2023-03-21T14:49:39.480Z,19.68
2023-03-21T14:52:43.037Z,19.68
2023-03-21T14:55:50.834Z,19.41
2023-03-21T14:58:54.171Z,19.45
2023-03-21T15:01:57.299Z,19.22
2023-03-21T15:05:09.870Z,19.21
2023-03-21T15:08:12.502Z,19.12
2023-03-21T15:11:15.540Z,18.98
2023-03-21T15:14:23.433Z,18.74
2023-03-21T15:17:26.826Z,18.77
2023-03-21T15:20:31.964Z,18.49
2023-03-21T15:23:43.203Z,18.43
2023-03-21T15:26:48.086Z,18.15
2023-03-21T15:29:54.179Z,18.06
2023-03-21T15:32:59.250Z,18.06
2023-03-21T15:36:08.532Z,17.91
2023-03-21T15:39:15.816Z,17.70
2023-03-21T15:42:37.483Z,17.44
2023-03-21T15:45:50.514Z,17.47
2023-03-21T15:49:08.264Z,17.26
2023-03-21T15:52:15.822Z,17.10
2023-03-21T15:55:52.262Z,17.04
2023-03-21T15:58:54.919Z,17.07
2023-03-21T16:01:57.527Z,16.86
2023-03-21T16:05:03.241Z,16.76
2023-03-21T16:08:22.392Z,16.83
2023-03-21T16:11:26.394Z,16.76
2023-03-21T16:14:29.245Z,16.69
2023-03-21T16:17:37.628Z,16.47
2023-03-21T16:20:43.341Z,16.54
2023-03-21T16:23:47.229Z,16.51
2023-03-21T16:26:52.183Z,16.41
2023-03-21T16:29:54.824Z,16.36
2023-03-21T16:32:57.447Z,16.33
2023-03-21T16:36:00.972Z,16.09
2023-03-21T16:39:15.935Z,16.20
2023-03-21T16:42:18.582Z,16.13
2023-03-21T16:45:21.455Z,16.06
2023-03-21T16:48:24.144Z,15.99
2023-03-21T16:51:33.357Z,15.79
2023-03-21T16:54:36.222Z,15.85
2023-03-21T16:57:39.335Z,15.75
2023-03-21T17:00:42.156Z,15.60
2023-03-21T17:03:45.429Z,15.66
2023-03-21T17:06:53.938Z,15.62
2023-03-21T17:09:56.340Z,15.56
2023-03-21T17:12:59.076Z,15.36
2023-03-21T17:16:01.415Z,15.31
2023-03-21T17:19:11.444Z,15.40
2023-03-21T17:22:14.740Z,15.31
2023-03-21T17:25:18.519Z,15.28
2023-03-21T17:28:21.006Z,15.26
2023-03-21T17:31:25.813Z,15.03
2023-03-21T17:34:28.198Z,14.97
2023-03-21T17:37:30.886Z,15.08
2023-03-21T17:40:34.491Z,14.90
2023-03-21T17:43:37.031Z,14.99
2023-03-21T17:46:39.535Z,14.96
2023-03-21T17:49:42.345Z,14.75
2023-03-21T17:52:45.068Z,14.87
2023-03-21T17:55:47.665Z,14.87
2023-03-21T17:58:50.065Z,14.83
2023-03-21T18:01:52.713Z,14.66
2023-03-21T18:04:56.215Z,14.67
2023-03-21T18:08:13.878Z,14.70
2023-03-21T18:11:18.624Z,14.49
2023-03-21T18:14:27.902Z,14.42
2023-03-21T18:17:31.285Z,14.54
2023-03-21T18:23:56.490Z,14.50
2023-03-21T18:26:58.863Z,14.48
2023-03-21T18:30:28.647Z,14.42
2023-03-21T18:33:24.391Z,14.48
2023-03-21T18:36:28.935Z,14.45
2023-03-21T18:39:33.209Z,14.42
2023-03-21T18:42:36.893Z,14.39
2023-03-21T18:45:39.417Z,14.22
2023-03-21T18:48:42.797Z,14.29
2023-03-21T18:51:47.115Z,14.16
2023-03-21T18:54:49.912Z,14.16
2023-03-21T18:57:53.978Z,14.14
2023-03-21T19:00:58.028Z,14.12
2023-03-21T19:04:21.403Z,14.11
2023-03-21T19:07:25.982Z,14.09
2023-03-21T19:10:28.456Z,14.12
2023-03-21T19:13:31.659Z,14.16
2023-03-21T19:16:48.697Z,14.17
2023-03-21T19:19:56.728Z,14.03
2023-03-21T19:22:59.173Z,14.13
2023-03-21T19:26:01.857Z,14.11
2023-03-21T19:29:07.572Z,13.95
2023-03-21T19:32:10.635Z,14.07
2023-03-21T19:35:14.315Z,13.92
2023-03-21T19:38:17.098Z,13.90
2023-03-21T19:41:20.453Z,13.97
2023-03-21T19:44:23.140Z,13.97
2023-03-21T19:47:25.615Z,13.84
2023-03-21T19:53:53.402Z,13.87
2023-03-21T19:56:56.200Z,13.96
2023-03-21T19:59:58.696Z,13.78
2023-03-21T20:03:01.683Z,13.88
2023-03-21T20:06:08.224Z,13.89
2023-03-21T20:09:49.767Z,13.76
2023-03-21T20:12:33.503Z,13.83
2023-03-21T20:15:45.871Z,13.80
2023-03-21T20:18:52.451Z,13.68
2023-03-21T20:21:59.384Z,13.76
2023-03-21T20:25:08.479Z,13.62
2023-03-21T20:28:17.153Z,13.67
2023-03-21T20:31:27.162Z,13.69
2023-03-21T20:34:30.616Z,13.69
2023-03-21T20:37:34.710Z,13.70
2023-03-21T20:40:38.173Z,13.70
2023-03-21T20:47:05.450Z,13.48
2023-03-21T20:50:11.755Z,13.58
2023-03-21T20:53:14.132Z,13.47
2023-03-21T20:56:16.737Z,13.54
2023-03-21T20:59:26.538Z,13.54
2023-03-21T21:02:30.110Z,13.36
2023-03-21T21:05:34.894Z,13.30
2023-03-21T21:08:38.685Z,13.25
2023-03-21T21:15:03.890Z,13.22
2023-03-21T21:18:07.648Z,13.34
2023-03-21T21:21:11.140Z,13.22
2023-03-21T21:24:14.830Z,13.18
2023-03-21T21:27:17.549Z,13.27
2023-03-21T21:30:20.233Z,13.17
2023-03-21T21:33:22.879Z,13.03
2023-03-21T21:36:25.954Z,13.14
2023-03-21T21:39:31.505Z,13.17
2023-03-21T21:42:38.320Z,13.13
2023-03-21T21:45:42.120Z,13.09
2023-03-21T21:48:45.248Z,12.93
2023-03-21T21:51:48.095Z,12.90
2023-03-21T21:54:50.993Z,12.93
2023-03-21T21:57:58.043Z,12.82
2023-03-21T22:01:01.806Z,12.79
2023-03-21T22:04:08.434Z,12.77
2023-03-21T22:07:14.248Z,12.65
2023-03-21T22:10:17.082Z,12.86
2023-03-21T22:13:19.446Z,12.80
2023-03-21T22:16:22.383Z,12.67
2023-03-21T22:19:24.834Z,12.54
2023-03-21T22:22:27.537Z,12.71
2023-03-21T22:25:33.109Z,12.70
2023-03-21T22:28:39.190Z,12.79
2023-03-21T22:31:42.530Z,12.82
2023-03-21T22:34:45.619Z,12.68
2023-03-21T22:37:48.469Z,12.67
2023-03-21T22:40:59.573Z,12.72
2023-03-21T22:44:02.311Z,12.67
2023-03-21T22:47:08.142Z,12.39
2023-03-21T22:50:11.140Z,12.67
2023-03-21T22:53:14.028Z,12.53
2023-03-21T22:56:16.385Z,12.52
2023-03-21T22:59:19.078Z,12.52
2023-03-21T23:02:21.525Z,12.64
2023-03-21T23:05:24.102Z,12.65
2023-03-21T23:08:27.163Z,12.56
2023-03-21T23:11:29.786Z,12.53
2023-03-21T23:14:32.239Z,12.43
2023-03-21T23:17:35.551Z,12.42
2023-03-21T23:20:38.365Z,12.32
2023-03-21T23:23:41.817Z,12.56
2023-03-21T23:26:44.229Z,12.39
2023-03-21T23:29:47.092Z,12.53
2023-03-21T23:32:49.411Z,12.52
2023-03-21T23:35:52.043Z,12.49
2023-03-21T23:38:54.419Z,12.40
2023-03-21T23:41:58.668Z,12.28
2023-03-21T23:45:01.273Z,12.21
2023-03-21T23:48:04.055Z,12.35
2023-03-21T23:51:06.715Z,12.29
2023-03-21T23:54:09.900Z,12.12
2023-03-21T23:57:12.689Z,12.11
